Time;durP1;ratioP1;P1;durP2;ratioP2;P2;SDS_P1;SDS_P2;PMS_P1;PMS_P2;Temp;Humidity;BMP_temperature;BMP_pressure;BME280_temperature;BME280_humidity;BME280_pressure;Samples;Min_cycle;Max_cycle;Signal;HPM_P1;HPM_P2
2021/06/23 00:01:57;;;;;;;1.83;1.63;;;29.20;67.10;;;;;;5094057;28;20110;-68
2021/06/23 00:04:23;;;;;;;2.45;1.67;;;29.20;67.30;;;;;;5112043;28;20056;-68
2021/06/23 00:06:49;;;;;;;1.63;1.63;;;29.20;67.40;;;;;;5094191;28;20083;-68
2021/06/23 00:09:15;;;;;;;1.73;1.63;;;29.20;67.40;;;;;;5110781;28;20093;-68
2021/06/23 00:11:45;;;;;;;1.80;1.80;;;29.20;67.60;;;;;;5112128;27;20105;-68
2021/06/23 00:14:12;;;;;;;4.15;1.70;;;29.20;67.70;;;;;;5089729;28;20055;-68
2021/06/23 00:16:39;;;;;;;1.52;1.50;;;29.20;67.70;;;;;;5111962;28;20063;-68
2021/06/23 00:19:06;;;;;;;1.27;1.27;;;29.20;67.80;;;;;;5111884;28;20047;-68
2021/06/23 00:21:32;;;;;;;1.77;1.52;;;29.10;67.80;;;;;;5112058;27;20083;-68
2021/06/23 00:23:58;;;;;;;1.60;1.58;;;29.20;67.90;;;;;;5111628;28;20051;-68
2021/06/23 00:26:24;;;;;;;1.40;1.40;;;29.10;67.90;;;;;;5111811;28;20426;-68
2021/06/23 00:28:50;;;;;;;1.67;1.67;;;29.20;68.00;;;;;;5091971;28;20079;-68
2021/06/23 00:31:16;;;;;;;2.00;1.90;;;29.10;68.00;;;;;;5111980;28;20082;-68
2021/06/23 00:33:46;;;;;;;3.08;1.38;;;29.10;68.00;;;;;;5093722;28;20473;-68
2021/06/23 00:36:12;;;;;;;1.95;1.52;;;29.10;68.10;;;;;;5111780;28;20139;-68
2021/06/23 00:38:38;;;;;;;1.92;1.83;;;29.20;68.20;;;;;;5093112;28;20134;-68
2021/06/23 00:41:06;;;;;;;1.52;1.42;;;29.10;68.20;;;;;;5111656;28;20067;-68
2021/06/23 00:43:32;;;;;;;1.40;1.40;;;29.10;68.10;;;;;;5093375;28;20122;-68
2021/06/23 00:45:58;;;;;;;1.52;1.50;;;29.10;68.10;;;;;;5111473;28;20139;-68
2021/06/23 00:48:29;;;;;;;1.58;1.48;;;29.10;68.00;;;;;;5093175;28;20055;-68
2021/06/23 00:50:59;;;;;;;;;;;29.10;67.90;;;;;;5111676;28;20051;-68
2021/06/23 00:53:48;;;;;;;1.58;1.52;;;29.10;67.90;;;;;;5105460;28;20842;-68
2021/06/23 00:56:15;;;;;;;1.77;1.67;;;29.10;67.70;;;;;;5092778;28;20138;-68
2021/06/23 00:58:42;;;;;;;1.45;1.45;;;29.10;67.60;;;;;;5111393;28;20087;-68
2021/06/23 01:01:15;;;;;;;1.20;1.20;;;29.10;67.50;;;;;;5107436;28;20142;-68
2021/06/23 01:03:41;;;;;;;1.88;1.77;;;29.10;67.50;;;;;;5110983;28;20098;-68
2021/06/23 01:06:11;;;;;;;1.50;1.40;;;29.10;67.30;;;;;;5111199;28;20104;-68
2021/06/23 01:08:37;;;;;;;1.40;1.30;;;29.10;67.30;;;;;;5073393;28;20063;-68
2021/06/23 01:11:06;;;;;;;1.48;1.48;;;29.10;67.10;;;;;;5088457;28;20059;-68
2021/06/23 01:13:35;;;;;;;1.10;1.10;;;29.00;67.00;;;;;;5105637;28;20059;-68
2021/06/23 01:16:08;;;;;;;1.70;1.60;;;29.10;67.00;;;;;;5092847;28;20051;-68
2021/06/23 01:18:36;;;;;;;;;;;29.10;66.90;;;;;;5111414;28;20142;-68
2021/06/23 01:21:04;;;;;;;1.10;1.10;;;29.00;66.90;;;;;;5092785;28;19923;-68
2021/06/23 01:23:30;;;;;;;2.20;2.10;;;29.00;66.80;;;;;;5110869;28;20060;-68
2021/06/23 01:25:57;;;;;;;1.08;1.08;;;29.00;66.80;;;;;;5110591;28;20559;-67
2021/06/23 01:28:23;;;;;;;2.97;1.30;;;29.00;66.80;;;;;;5110691;28;20063;-68
2021/06/23 01:31:09;;;;;;;1.48;1.48;;;29.00;66.70;;;;;;5092629;28;20134;-67
2021/06/23 01:33:36;;;;;;;1.42;1.33;;;29.00;66.70;;;;;;5092125;28;20117;-68
2021/06/23 01:36:03;;;;;;;1.60;1.55;;;29.00;66.70;;;;;;5110676;28;20143;-68
2021/06/23 01:38:29;;;;;;;1.77;1.48;;;29.00;66.70;;;;;;5107689;28;20142;-68
2021/06/23 01:40:57;;;;;;;1.58;1.50;;;29.00;66.60;;;;;;5110535;28;20085;-68
2021/06/23 01:43:23;;;;;;;1.63;1.52;;;29.00;66.60;;;;;;5092307;28;20087;-68
2021/06/23 01:45:50;;;;;;;1.38;1.38;;;29.00;66.50;;;;;;5110274;28;20083;-68
2021/06/23 01:48:23;;;;;;;1.23;1.13;;;29.00;66.50;;;;;;5092091;28;20055;-68
2021/06/23 01:50:55;;;;;;;1.30;1.30;;;29.00;66.40;;;;;;5091862;28;20134;-68
2021/06/23 01:53:24;;;;;;;1.50;1.48;;;29.00;66.40;;;;;;5092392;28;20146;-68
2021/06/23 01:55:51;;;;;;;3.63;1.80;;;29.00;66.40;;;;;;5091790;28;20091;-68
2021/06/23 01:58:18;;;;;;;1.48;1.17;;;29.00;66.40;;;;;;5109937;28;20050;-68
2021/06/23 02:01:14;;;;;;;1.23;1.23;;;29.00;66.40;;;;;;5091707;28;20083;-68
2021/06/23 02:03:55;;;;;;;1.10;1.00;;;29.00;66.30;;;;;;5109974;28;20055;-68
2021/06/23 02:06:47;;;;;;;1.25;1.25;;;29.00;66.30;;;;;;5109855;28;20126;-68
2021/06/23 02:09:14;;;;;;;1.05;1.05;;;29.00;66.30;;;;;;5108554;28;20063;-68
2021/06/23 02:11:48;;;;;;;;;;;28.90;66.20;;;;;;5076061;28;20662;-68
2021/06/23 02:14:39;;;;;;;1.40;1.40;;;29.00;66.30;;;;;;5088605;28;20302;-67
2021/06/23 02:17:30;;;;;;;1.98;1.38;;;28.90;66.30;;;;;;5052708;28;20138;-68
2021/06/23 02:20:12;;;;;;;0.82;0.82;;;28.90;66.20;;;;;;5091667;28;20155;-68
2021/06/23 02:22:40;;;;;;;1.20;1.13;;;28.90;66.20;;;;;;5109445;28;20090;-68
2021/06/23 02:25:14;;;;;;;1.15;1.15;;;28.90;66.30;;;;;;5091549;28;20502;-68
2021/06/23 02:27:49;;;;;;;0.95;0.95;;;28.90;66.20;;;;;;5091382;28;20147;-68
2021/06/23 02:30:17;;;;;;;3.25;1.10;;;28.90;66.20;;;;;;5091223;28;20051;-68
2021/06/23 02:32:58;;;;;;;1.27;1.27;;;28.90;66.10;;;;;;5091091;28;20455;-67
2021/06/23 02:35:36;;;;;;;1.08;0.98;;;28.90;66.10;;;;;;5091305;28;20139;-68
2021/06/23 02:38:06;;;;;;;;;;;28.90;66.10;;;;;;5091436;28;20087;-68
2021/06/23 02:40:33;;;;;;;1.30;1.30;;;28.90;66.10;;;;;;5108840;28;20350;-68
2021/06/23 02:43:05;;;;;;;1.50;1.50;;;28.90;66.10;;;;;;5070818;28;20048;-68
2021/06/23 02:45:31;;;;;;;1.00;1.00;;;28.90;66.10;;;;;;5100685;28;20511;-68
2021/06/23 02:48:00;;;;;;;1.45;1.38;;;28.90;66.10;;;;;;5108984;28;20090;-68
2021/06/23 02:51:23;;;;;;;1.38;1.27;;;28.90;66.20;;;;;;5101447;28;20087;-68
2021/06/23 02:54:00;;;;;;;2.35;1.10;;;28.90;66.10;;;;;;5088314;28;20055;-68
2021/06/23 02:56:47;;;;;;;1.55;1.45;;;28.90;66.10;;;;;;5108806;28;20551;-68
2021/06/23 02:59:14;;;;;;;1.60;1.50;;;28.90;66.00;;;;;;5070195;28;20135;-68
2021/06/23 03:01:40;;;;;;;1.17;1.15;;;28.90;66.00;;;;;;5090330;28;20078;-68
2021/06/23 03:04:16;;;;;;;1.38;1.27;;;28.90;66.00;;;;;;5090586;28;20183;-68
2021/06/23 03:07:10;;;;;;;0.90;0.90;;;28.90;66.00;;;;;;5108243;28;20510;-68
2021/06/23 03:09:39;;;;;;;1.23;1.13;;;28.90;66.00;;;;;;5087113;28;20145;-68
2021/06/23 03:12:21;;;;;;;2.78;1.00;;;28.90;66.00;;;;;;5088903;28;20075;-68
2021/06/23 03:15:16;;;;;;;1.05;1.05;;;28.90;66.00;;;;;;5108518;28;20142;-68
2021/06/23 03:17:43;;;;;;;1.77;1.60;;;28.90;66.00;;;;;;5090422;28;20056;-67
2021/06/23 03:20:11;;;;;;;0.90;0.90;;;28.90;66.00;;;;;;5108427;28;20138;-68
2021/06/23 03:22:42;;;;;;;0.75;0.75;;;28.90;66.50;;;;;;5108576;28;20154;-68
2021/06/23 03:25:09;;;;;;;1.27;1.17;;;28.90;66.00;;;;;;5108525;28;20109;-68
2021/06/23 03:27:35;;;;;;;1.20;1.20;;;28.90;65.90;;;;;;5090366;28;20062;-68
2021/06/23 03:30:03;;;;;;;1.55;1.17;;;28.90;65.90;;;;;;5080864;28;20130;-67
2021/06/23 03:32:31;;;;;;;1.83;1.27;;;28.80;64.60;;;;;;5108603;28;20052;-68
2021/06/23 03:34:58;;;;;;;1.27;1.08;;;28.80;62.90;;;;;;5107941;28;20051;-68
2021/06/23 03:37:24;;;;;;;1.35;1.30;;;28.80;62.60;;;;;;5090229;28;20087;-68
2021/06/23 03:39:50;;;;;;;1.00;1.00;;;28.80;62.60;;;;;;5090213;28;20434;-68
2021/06/23 03:42:16;;;;;;;1.85;0.93;;;28.80;62.70;;;;;;5108292;28;20052;-68
2021/06/23 03:44:44;;;;;;;2.47;0.98;;;28.80;62.80;;;;;;5090300;28;20130;-68
2021/06/23 03:47:15;;;;;;;0.77;0.77;;;28.70;62.70;;;;;;5081723;28;20052;-68
2021/06/23 03:49:42;;;;;;;1.15;1.15;;;28.70;62.80;;;;;;5108180;28;20570;-68
2021/06/23 03:52:08;;;;;;;0.98;0.98;;;28.70;63.00;;;;;;5069974;28;20131;-68
2021/06/23 03:54:34;;;;;;;1.10;1.10;;;28.80;63.50;;;;;;5088495;28;20485;-68
2021/06/23 03:57:03;;;;;;;1.50;1.13;;;28.80;63.90;;;;;;5090271;28;20511;-68
2021/06/23 03:59:31;;;;;;;2.38;0.90;;;28.80;64.10;;;;;;5089842;28;20087;-68
2021/06/23 04:01:58;;;;;;;1.10;1.00;;;28.80;64.40;;;;;;5108178;28;20063;-68
2021/06/23 04:04:24;;;;;;;1.30;0.93;;;28.80;64.60;;;;;;5089846;28;20432;-68
2021/06/23 04:07:13;;;;;;;0.90;0.90;;;28.80;64.90;;;;;;5107975;28;20059;-68
2021/06/23 04:09:40;;;;;;;5.57;1.25;;;28.80;65.20;;;;;;5103637;28;20056;-68
2021/06/23 04:12:14;;;;;;;1.15;1.13;;;28.80;65.40;;;;;;5086692;28;20135;-68
2021/06/23 04:14:48;;;;;;;1.17;1.17;;;28.80;65.60;;;;;;5107966;28;20060;-68
2021/06/23 04:17:14;;;;;;;0.80;0.80;;;28.80;65.60;;;;;;5089796;28;20055;-68
2021/06/23 04:19:41;;;;;;;1.15;1.05;;;28.80;65.80;;;;;;5073246;28;20550;-68
2021/06/23 04:22:12;;;;;;;1.05;1.05;;;28.90;66.00;;;;;;5086164;28;20780;-68
2021/06/23 04:24:39;;;;;;;0.98;0.98;;;28.90;66.10;;;;;;5089954;28;20097;-68
2021/06/23 04:27:07;;;;;;;1.10;0.88;;;28.90;66.10;;;;;;5089302;28;20130;-69
2021/06/23 04:29:37;;;;;;;1.25;1.25;;;29.00;66.30;;;;;;5108006;28;20051;-69
2021/06/23 04:32:05;;;;;;;2.20;1.10;;;29.00;66.40;;;;;;5089904;28;20538;-68
2021/06/23 04:34:32;;;;;;;2.88;1.52;;;29.00;66.40;;;;;;5089837;28;20150;-69
2021/06/23 04:37:13;;;;;;;0.98;0.93;;;29.00;66.60;;;;;;5107668;28;20055;-68
2021/06/23 04:39:39;;;;;;;1.00;0.95;;;29.10;66.60;;;;;;5107765;28;20257;-69
2021/06/23 04:42:12;;;;;;;1.15;1.00;;;29.10;66.70;;;;;;5090677;28;20052;-69
2021/06/23 04:44:41;;;;;;;1.10;1.10;;;29.10;66.70;;;;;;5089403;28;20083;-69
2021/06/23 04:47:07;;;;;;;1.15;1.15;;;29.10;66.70;;;;;;5092434;28;20495;-68
2021/06/23 04:49:34;;;;;;;1.95;1.33;;;29.10;66.80;;;;;;5093356;28;20062;-68
2021/06/23 04:52:11;;;;;;;1.10;1.10;;;29.10;66.80;;;;;;5093303;28;20591;-68
2021/06/23 04:54:38;;;;;;;2.88;1.10;;;29.10;66.90;;;;;;5092722;28;20134;-69
2021/06/23 04:57:05;;;;;;;0.98;0.95;;;29.10;66.90;;;;;;5093052;28;20158;-68
2021/06/23 04:59:32;;;;;;;3.00;1.17;;;29.10;67.00;;;;;;5074049;28;20167;-68
2021/06/23 05:01:58;;;;;;;1.25;1.25;;;29.10;67.00;;;;;;5111202;28;20056;-68
2021/06/23 05:04:24;;;;;;;1.55;1.45;;;29.10;66.90;;;;;;5110999;28;20062;-68
2021/06/23 05:06:50;;;;;;;3.15;1.30;;;29.20;67.10;;;;;;5109049;28;20162;-68
2021/06/23 05:09:16;;;;;;;2.38;1.20;;;29.20;67.00;;;;;;5103509;28;20142;-65
2021/06/23 05:11:42;;;;;;;3.08;1.05;;;29.20;66.80;;;;;;5098460;27;20926;-67
2021/06/23 05:14:09;;;;;;;1.20;1.20;;;29.20;66.80;;;;;;5109499;28;20206;-68
2021/06/23 05:16:37;;;;;;;1.42;1.20;;;29.20;67.20;;;;;;5090196;28;20101;-69
2021/06/23 05:19:04;;;;;;;2.95;1.27;;;29.20;67.20;;;;;;5105660;27;20110;-68
2021/06/23 05:21:35;;;;;;;2.33;1.20;;;29.20;67.10;;;;;;5110681;28;20122;-67
2021/06/23 05:24:02;;;;;;;1.38;1.27;;;29.20;66.70;;;;;;5111112;28;20097;-68
2021/06/23 05:26:29;;;;;;;1.15;1.05;;;29.10;65.50;;;;;;5109751;28;20056;-67
2021/06/23 05:28:56;;;;;;;7.68;1.10;;;29.20;67.10;;;;;;5107322;28;20066;-70
2021/06/23 05:31:23;;;;;;;5.10;1.05;;;29.20;67.70;;;;;;5110667;28;20051;-70
2021/06/23 05:33:49;;;;;;;3.28;1.35;;;29.20;67.90;;;;;;5110761;28;20559;-70
2021/06/23 05:36:17;;;;;;;2.58;0.93;;;29.20;68.20;;;;;;5110333;28;20430;-70
2021/06/23 05:38:43;;;;;;;8.07;3.00;;;29.20;68.40;;;;;;5092034;28;20052;-71
2021/06/23 05:41:10;;;;;;;10.15;4.90;;;29.20;68.90;;;;;;5092008;28;20058;-70
2021/06/23 05:43:38;;;;;;;9.65;3.95;;;29.30;69.40;;;;;;5110419;28;20510;-72
2021/06/23 05:46:04;;;;;;;28.00;5.00;;;29.20;69.30;;;;;;5105756;28;20094;-67
2021/06/23 05:48:31;;;;;;;8.65;3.30;;;29.30;69.30;;;;;;5106295;28;20109;-62
2021/06/23 05:50:57;;;;;;;9.73;3.30;;;29.30;69.40;;;;;;5090258;28;20131;-62
2021/06/23 05:53:23;;;;;;;7.78;3.75;;;29.20;69.40;;;;;;5097312;28;20055;-61
2021/06/23 05:55:55;;;;;;;11.07;2.63;;;29.20;69.50;;;;;;5097277;28;20063;-62
2021/06/23 05:58:22;;;;;;;10.02;3.42;;;29.20;69.60;;;;;;5097466;28;20143;-62
2021/06/23 06:00:48;;;;;;;8.00;3.30;;;29.20;68.90;;;;;;5109783;28;20090;-61
2021/06/23 06:03:14;;;;;;;8.68;2.95;;;29.20;68.20;;;;;;5109226;28;20077;-62
2021/06/23 06:05:40;;;;;;;8.57;2.55;;;29.20;67.60;;;;;;5107325;28;20483;-60
2021/06/23 06:08:08;;;;;;;4.32;2.88;;;29.20;67.00;;;;;;5106915;28;20083;-63
2021/06/23 06:10:34;;;;;;;8.15;2.85;;;29.10;66.20;;;;;;5106288;27;20072;-63
2021/06/23 06:13:05;;;;;;;3.10;2.47;;;29.10;65.30;;;;;;5101214;28;20147;-63
2021/06/23 06:15:33;;;;;;;3.30;2.40;;;29.10;64.30;;;;;;5105075;28;20078;-63
2021/06/23 06:18:05;;;;;;;6.78;2.63;;;29.10;63.60;;;;;;5107954;28;20052;-63
2021/06/23 06:20:32;;;;;;;4.05;2.63;;;29.00;63.00;;;;;;5107631;28;20138;-63
2021/06/23 06:22:58;;;;;;;3.20;2.17;;;29.00;62.30;;;;;;5094796;28;20059;-63
2021/06/23 06:25:24;;;;;;;6.68;2.70;;;29.00;61.60;;;;;;5109395;28;20422;-63
2021/06/23 06:27:50;;;;;;;8.55;2.05;;;28.90;61.10;;;;;;5107374;28;20147;-63
2021/06/23 06:30:17;;;;;;;4.82;2.35;;;28.90;60.60;;;;;;5105768;28;20062;-63
2021/06/23 06:32:44;;;;;;;3.45;2.13;;;28.90;60.20;;;;;;5107597;27;20059;-63
2021/06/23 06:35:10;;;;;;;4.78;2.60;;;28.90;59.60;;;;;;5109472;28;20122;-64
2021/06/23 06:37:36;;;;;;;5.05;2.50;;;28.80;59.00;;;;;;5088900;28;20083;-64
2021/06/23 06:40:03;;;;;;;5.35;2.38;;;28.80;58.60;;;;;;5091041;28;20075;-64
2021/06/23 06:42:29;;;;;;;2.45;2.03;;;28.80;58.00;;;;;;5090215;28;20130;-63
2021/06/23 06:44:55;;;;;;;4.07;2.30;;;28.80;57.60;;;;;;5087372;28;20634;-62
2021/06/23 06:47:21;;;;;;;4.40;2.42;;;28.80;57.20;;;;;;5092375;28;20048;-61
2021/06/23 06:49:47;;;;;;;5.22;2.65;;;28.70;56.50;;;;;;5100190;27;20062;-64
2021/06/23 06:52:13;;;;;;;5.50;2.60;;;28.70;56.30;;;;;;5108958;28;20427;-64
2021/06/23 06:54:39;;;;;;;2.95;2.38;;;28.70;56.00;;;;;;5108713;28;20117;-67
2021/06/23 06:57:05;;;;;;;37.50;6.03;;;28.60;55.70;;;;;;5107833;28;20079;-64
2021/06/23 06:59:31;;;;;;;19.40;4.22;;;28.60;55.70;;;;;;5108723;28;20134;-62
2021/06/23 07:01:57;;;;;;;15.93;4.53;;;28.60;55.30;;;;;;5108875;28;20612;-62
2021/06/23 07:04:23;;;;;;;14.00;5.40;;;28.60;55.10;;;;;;5108446;28;20126;-63
2021/06/23 07:06:49;;;;;;;12.90;3.75;;;28.60;54.80;;;;;;5108722;28;20126;-62
2021/06/23 07:09:16;;;;;;;19.63;4.88;;;28.60;54.70;;;;;;5088994;28;20062;-63
2021/06/23 07:11:43;;;;;;;15.43;4.55;;;28.50;54.60;;;;;;5108149;28;20094;-62
2021/06/23 07:14:09;;;;;;;16.50;4.78;;;28.60;54.70;;;;;;5090410;28;20147;-67
2021/06/23 07:16:35;;;;;;;13.65;4.65;;;28.60;54.60;;;;;;5075256;27;20503;-68
2021/06/23 07:19:02;;;;;;;9.43;3.97;;;28.50;54.30;;;;;;5114223;27;20121;-68
2021/06/23 07:21:28;;;;;;;14.90;4.32;;;28.60;54.30;;;;;;5108682;28;20063;-62
2021/06/23 07:23:57;;;;;;;17.33;4.93;;;28.60;54.10;;;;;;5091187;28;20062;-64
2021/06/23 07:26:27;;;;;;;14.45;4.65;;;28.60;54.10;;;;;;5107696;28;20471;-63
2021/06/23 07:28:55;;;;;;;17.17;5.25;;;28.60;54.00;;;;;;5087138;28;20063;-64
2021/06/23 07:31:39;;;;;;;12.68;5.05;;;28.60;53.60;;;;;;5088078;28;20060;-63
2021/06/23 07:36:43;;;;;;;11.07;4.70;;;28.70;53.40;;;;;;5087917;28;20506;-61
2021/06/23 07:39:12;;;;;;;10.75;4.90;;;28.70;53.40;;;;;;5074449;28;20147;-61
2021/06/23 07:41:40;;;;;;;9.93;4.57;;;28.70;53.20;;;;;;5085913;28;20060;-64
2021/06/23 07:44:08;;;;;;;11.75;4.57;;;28.70;53.10;;;;;;5080132;28;20055;-65
2021/06/23 07:46:38;;;;;;;12.75;4.13;;;28.70;53.00;;;;;;5084660;28;20135;-63
2021/06/23 07:49:10;;;;;;;11.63;4.20;;;28.80;53.00;;;;;;5079238;28;20152;-63
2021/06/23 07:51:46;;;;;;;8.95;3.90;;;28.80;53.00;;;;;;5085997;28;20526;-63
2021/06/23 07:54:21;;;;;;;11.20;4.53;;;28.80;53.40;;;;;;5077716;28;20048;-63
2021/06/23 08:10:03;;;;;;;7.88;3.80;;;28.80;52.50;;;;;;5076187;28;20138;-60
2021/06/23 08:15:27;;;;;;;9.65;4.43;;;28.80;52.40;;;;;;5058535;28;20052;-61
2021/06/23 08:17:54;;;;;;;17.42;4.55;;;28.80;52.50;;;;;;5075825;28;20143;-62
2021/06/23 08:20:20;;;;;;;5.90;4.20;;;28.90;52.30;;;;;;5087764;28;20482;-61
2021/06/23 08:22:47;;;;;;;7.18;3.58;;;28.90;52.30;;;;;;5079251;28;20048;-62
2021/06/23 08:25:13;;;;;;;9.30;3.88;;;28.90;52.20;;;;;;5083081;28;20908;-62
2021/06/23 08:27:40;;;;;;;6.88;4.00;;;28.90;52.10;;;;;;5085527;28;20056;-62
2021/06/23 08:30:07;;;;;;;5.20;3.28;;;28.90;52.10;;;;;;5084152;28;20064;-61
2021/06/23 08:32:38;;;;;;;5.30;3.15;;;28.90;52.10;;;;;;5069442;28;20567;-62
2021/06/23 08:35:06;;;;;;;8.13;5.13;;;28.90;52.20;;;;;;5058772;28;20056;-62
2021/06/23 08:37:32;;;;;;;8.75;4.07;;;28.90;52.00;;;;;;5084790;28;20062;-62
2021/06/23 08:39:58;;;;;;;6.63;3.80;;;28.90;51.90;;;;;;5072354;28;20147;-61
2021/06/23 08:42:25;;;;;;;7.50;3.75;;;28.90;51.90;;;;;;5078777;28;20056;-60
2021/06/23 08:44:53;;;;;;;8.75;4.00;;;28.90;52.20;;;;;;5090658;28;20048;-61
2021/06/23 08:47:19;;;;;;;7.20;3.38;;;29.00;52.20;;;;;;5069758;28;20563;-61
2021/06/23 08:49:47;;;;;;;8.40;4.18;;;29.00;52.00;;;;;;5084699;28;20080;-61
2021/06/23 08:52:13;;;;;;;4.80;4.10;;;29.00;51.90;;;;;;5079582;28;20656;-61
2021/06/23 08:54:41;;;;;;;4.68;4.10;;;29.00;51.80;;;;;;5084846;28;20088;-62
2021/06/23 08:57:09;;;;;;;6.70;3.60;;;29.00;51.80;;;;;;5078826;28;20059;-62
2021/06/23 08:59:39;;;;;;;6.45;3.58;;;29.00;52.60;;;;;;5084935;28;20051;-61
2021/06/23 09:02:10;;;;;;;5.93;4.13;;;29.10;51.80;;;;;;5080121;28;20083;-62
2021/06/23 09:04:36;;;;;;;6.90;4.50;;;29.10;51.60;;;;;;5084093;28;20060;-62
2021/06/23 09:07:04;;;;;;;8.38;4.68;;;29.00;51.50;;;;;;5080961;28;20405;-62
2021/06/23 09:09:30;;;;;;;6.07;3.85;;;29.00;51.30;;;;;;5084599;28;20117;-63
2021/06/23 09:11:59;;;;;;;6.45;3.85;;;29.00;51.20;;;;;;5076902;28;20458;-61
2021/06/23 09:14:28;;;;;;;5.95;3.33;;;29.00;51.40;;;;;;5084990;28;20056;-59
2021/06/23 09:17:01;;;;;;;4.78;3.45;;;29.10;54.60;;;;;;5081486;28;20147;-61
2021/06/23 09:19:28;;;;;;;5.72;3.28;;;29.10;54.00;;;;;;5083689;28;20062;-61
2021/06/23 09:21:55;;;;;;;7.13;4.30;;;29.10;53.60;;;;;;5083491;28;20060;-60
2021/06/23 09:24:34;;;;;;;6.28;3.80;;;29.20;53.30;;;;;;5084221;28;20130;-61
2021/06/23 09:27:00;;;;;;;4.25;3.05;;;29.20;53.40;;;;;;5071565;28;20041;-62
2021/06/23 09:29:26;;;;;;;4.70;3.58;;;29.20;53.00;;;;;;5082413;28;20568;-60
2021/06/23 09:32:03;;;;;;;5.95;3.60;;;29.20;53.00;;;;;;5078016;28;20126;-59
2021/06/23 09:34:42;;;;;;;6.30;3.40;;;29.20;52.90;;;;;;5081555;28;20083;-61
2021/06/23 09:37:24;;;;;;;4.28;2.75;;;29.10;52.30;;;;;;5086153;28;20060;-61
2021/06/23 09:40:08;;;;;;;6.00;3.17;;;29.10;52.40;;;;;;5084438;28;20143;-61
2021/06/23 09:42:37;;;;;;;5.72;3.33;;;29.10;52.30;;;;;;5074194;28;20109;-62
2021/06/23 09:45:06;;;;;;;4.75;3.10;;;29.20;52.40;;;;;;5086309;28;20155;-61
2021/06/23 09:47:35;;;;;;;11.55;3.78;;;29.20;52.10;;;;;;5082755;28;20048;-63
2021/06/23 09:50:03;;;;;;;2.67;2.38;;;29.20;51.90;;;;;;5086097;28;20056;-63
2021/06/23 09:52:29;;;;;;;7.38;3.65;;;29.20;52.00;;;;;;5084777;28;20086;-62
2021/06/23 09:54:55;;;;;;;4.78;2.80;;;29.20;51.80;;;;;;5086382;28;20641;-61
2021/06/23 09:57:21;;;;;;;6.18;2.97;;;29.20;51.50;;;;;;5050063;28;20401;-60
2021/06/23 09:59:55;;;;;;;9.48;2.97;;;29.20;52.00;;;;;;5046379;28;20485;-60
2021/06/23 10:02:32;;;;;;;6.03;3.00;;;29.20;51.70;;;;;;5044224;28;20053;-60
2021/06/23 10:05:03;;;;;;;2.47;2.25;;;29.20;51.50;;;;;;5045822;28;20127;-59
2021/06/23 10:07:44;;;;;;;5.38;2.70;;;29.20;51.50;;;;;;5046290;28;20774;-59
2021/06/23 10:10:16;;;;;;;6.55;2.63;;;29.20;51.40;;;;;;5041645;28;20081;-61
2021/06/23 10:12:43;;;;;;;;;;;29.20;51.30;;;;;;5047028;28;20045;-59
2021/06/23 10:15:09;;;;;;;6.82;2.60;;;29.20;51.90;;;;;;5044931;28;20309;-58
2021/06/23 10:17:37;;;;;;;5.85;2.75;;;29.20;53.30;;;;;;5047388;28;20095;-58
2021/06/23 10:20:04;;;;;;;5.55;3.85;;;29.30;54.50;;;;;;5046242;28;20049;-59
2021/06/23 10:22:31;;;;;;;3.00;2.53;;;29.40;55.40;;;;;;5047537;28;20509;-59
2021/06/23 10:25:03;;;;;;;3.38;2.60;;;29.50;56.00;;;;;;5045727;28;20148;-59
2021/06/23 10:27:29;;;;;;;5.50;2.72;;;29.50;56.50;;;;;;5048110;28;20140;-59
2021/06/23 10:29:59;;;;;;;4.07;3.40;;;29.50;56.90;;;;;;5046702;28;20053;-59
2021/06/23 10:32:26;;;;;;;3.80;3.03;;;29.50;57.40;;;;;;5047739;28;20069;-59
2021/06/23 10:34:52;;;;;;;5.95;2.47;;;29.50;57.80;;;;;;5046752;28;20059;-59
2021/06/23 10:37:20;;;;;;;4.20;2.25;;;29.50;58.20;;;;;;5047531;28;20935;-59
2021/06/23 10:39:47;;;;;;;5.65;2.75;;;29.60;59.60;;;;;;5040790;28;20126;-59
2021/06/23 10:42:14;;;;;;;4.65;2.67;;;29.70;59.20;;;;;;5048103;28;20115;-59
2021/06/23 10:44:47;;;;;;;3.78;2.28;;;29.60;60.20;;;;;;5039396;28;20045;-60
2021/06/23 10:47:28;;;;;;;4.55;2.50;;;29.70;60.00;;;;;;5041900;28;20088;-59
2021/06/23 10:49:54;;;;;;;6.43;3.28;;;29.70;59.40;;;;;;5041713;28;20049;-59
2021/06/23 10:52:20;;;;;;;14.48;5.45;;;29.70;59.30;;;;;;5050522;28;20140;-61
2021/06/23 10:55:07;;;;;;;26.50;7.97;;;29.70;58.80;;;;;;5039205;28;20139;-59
2021/06/23 10:57:45;;;;;;;40.20;15.13;;;29.80;58.50;;;;;;5079271;28;20507;-59
2021/06/23 11:00:13;;;;;;;33.90;12.85;;;29.70;57.90;;;;;;5079999;28;20052;-61
2021/06/23 11:02:43;;;;;;;32.15;13.32;;;29.70;57.00;;;;;;5080731;28;20159;-61
2021/06/23 11:05:11;;;;;;;42.20;12.13;;;29.70;56.30;;;;;;5077790;28;20059;-61
2021/06/23 11:07:38;;;;;;;38.83;12.50;;;29.70;56.10;;;;;;5062034;28;20055;-60
2021/06/23 11:10:14;;;;;;;33.13;11.43;;;29.70;55.70;;;;;;5081214;28;20130;-59
2021/06/23 11:12:46;;;;;;;31.38;10.77;;;29.70;54.80;;;;;;5079440;28;20059;-60
2021/06/23 11:15:25;;;;;;;30.75;9.95;;;29.60;54.40;;;;;;5086160;28;20048;-60
2021/06/23 11:17:54;;;;;;;25.42;10.15;;;29.60;54.20;;;;;;5083321;28;20048;-59
2021/06/23 11:20:20;;;;;;;24.45;9.10;;;29.60;53.70;;;;;;5085444;28;20155;-61
2021/06/23 11:22:56;;;;;;;26.75;10.18;;;29.60;53.20;;;;;;5084126;28;20139;-61
2021/06/23 11:25:27;;;;;;;26.67;9.45;;;29.60;52.70;;;;;;5084696;28;20129;-61
2021/06/23 11:28:08;;;;;;;21.63;8.02;;;29.50;52.20;;;;;;5078955;28;20056;-61
2021/06/23 11:30:36;;;;;;;26.43;9.53;;;29.50;51.80;;;;;;5084586;28;20221;-60
2021/06/23 11:33:28;;;;;;;23.05;8.55;;;29.50;51.50;;;;;;5085761;28;20071;-60
2021/06/23 11:35:55;;;;;;;17.63;8.18;;;29.50;51.30;;;;;;5026097;28;20127;-60
2021/06/23 11:38:22;;;;;;;17.15;8.38;;;29.40;51.10;;;;;;5080920;28;20059;-60
2021/06/23 11:40:49;;;;;;;22.02;7.75;;;29.40;50.60;;;;;;5084967;28;20062;-60
2021/06/23 11:43:16;;;;;;;21.77;8.40;;;29.30;50.60;;;;;;5086157;28;20166;-62
2021/06/23 11:45:42;;;;;;;17.10;7.07;;;29.30;50.50;;;;;;5067364;28;20056;-60
2021/06/23 11:48:09;;;;;;;27.17;7.95;;;29.30;52.00;;;;;;5084749;28;20109;-61
2021/06/23 11:50:35;;;;;;;17.20;6.90;;;29.30;54.60;;;;;;5090675;28;20491;-60
2021/06/23 11:53:06;;;;;;;20.27;6.68;;;29.40;55.80;;;;;;5087418;28;20058;-60
2021/06/23 11:55:32;;;;;;;19.50;6.15;;;29.40;56.40;;;;;;5089433;28;20469;-61
2021/06/23 11:58:00;;;;;;;14.57;6.00;;;29.40;57.40;;;;;;5085161;28;20055;-59
2021/06/23 12:00:29;;;;;;;12.90;5.38;;;29.40;58.30;;;;;;5081634;28;20064;-62
2021/06/23 12:02:57;;;;;;;11.18;6.07;;;29.40;58.80;;;;;;5087123;28;20060;-62
2021/06/23 12:05:24;;;;;;;12.68;5.65;;;29.50;59.20;;;;;;5082969;28;20151;-61
2021/06/23 12:07:51;;;;;;;15.73;5.70;;;29.50;59.80;;;;;;5087267;28;20062;-61
2021/06/23 12:10:19;;;;;;;15.50;6.20;;;29.60;59.90;;;;;;5082276;28;20048;-61
2021/06/23 12:12:47;;;;;;;16.38;6.50;;;29.60;60.20;;;;;;5083334;28;20492;-61
2021/06/23 12:15:16;;;;;;;12.65;5.45;;;29.60;60.60;;;;;;5069700;28;20063;-61
2021/06/23 12:17:43;;;;;;;17.70;6.15;;;29.60;60.60;;;;;;5087085;28;20534;-59
2021/06/23 12:20:10;;;;;;;10.57;5.55;;;29.60;60.70;;;;;;5084524;28;20542;-59
2021/06/23 12:22:38;;;;;;;9.70;5.05;;;29.60;60.80;;;;;;5088119;28;20060;-59
2021/06/23 12:25:09;;;;;;;10.77;5.07;;;29.60;62.00;;;;;;5084722;28;20575;-58
2021/06/23 12:27:36;;;;;;;12.77;5.22;;;29.60;61.80;;;;;;5088084;28;20891;-59
2021/06/23 12:30:04;;;;;;;13.88;6.25;;;29.60;63.10;;;;;;5086809;28;20070;-59
2021/06/23 12:32:30;;;;;;;12.25;5.07;;;29.60;62.30;;;;;;5089018;28;20052;-58
2021/06/23 12:34:56;;;;;;;11.38;5.00;;;29.70;61.90;;;;;;5087252;28;20154;-59
2021/06/23 12:37:22;;;;;;;11.38;4.70;;;29.70;62.90;;;;;;5088729;28;20071;-59
2021/06/23 12:39:48;;;;;;;10.63;5.35;;;29.70;63.10;;;;;;5072027;28;20153;-59
2021/06/23 12:42:14;;;;;;;11.75;4.72;;;29.70;61.90;;;;;;5089119;28;20743;-59
2021/06/23 12:44:40;;;;;;;9.55;4.70;;;29.70;62.60;;;;;;5072829;28;20071;-59
2021/06/23 12:47:06;;;;;;;12.05;5.45;;;29.70;62.60;;;;;;5089254;28;20052;-59
2021/06/23 12:49:32;;;;;;;7.00;4.55;;;29.60;62.00;;;;;;5087137;28;20883;-58
2021/06/23 12:51:59;;;;;;;10.05;4.80;;;29.60;61.90;;;;;;5090038;28;20434;-57
2021/06/23 12:54:28;;;;;;;8.18;4.45;;;29.60;62.40;;;;;;5088283;28;20052;-59
2021/06/23 12:56:54;;;;;;;10.93;4.97;;;29.60;62.00;;;;;;5089476;28;20147;-59
2021/06/23 12:59:20;;;;;;;11.95;4.82;;;29.60;61.50;;;;;;5089980;28;20109;-59
2021/06/23 13:01:47;;;;;;;12.35;5.05;;;29.60;60.40;;;;;;5072656;28;20054;-59
2021/06/23 13:04:13;;;;;;;8.02;4.47;;;29.60;59.50;;;;;;5077977;28;20123;-59
2021/06/23 13:06:40;;;;;;;10.52;4.30;;;29.50;58.80;;;;;;5082238;28;20143;-59
2021/06/23 13:09:06;;;;;;;9.93;4.93;;;29.40;58.00;;;;;;5077007;28;20052;-59
2021/06/23 13:11:33;;;;;;;9.48;4.70;;;29.40;57.20;;;;;;5081837;28;20150;-58
2021/06/23 13:13:59;;;;;;;12.48;5.15;;;29.40;56.70;;;;;;5077475;28;20049;-59
2021/06/23 13:16:27;;;;;;;9.57;4.57;;;29.30;56.20;;;;;;5083617;28;20130;-59